Harlingen, TX

9:35 PM CDT on September 27, 2016 (GMT -0500)
KNIGHTWOOD/WD5ADC | | Change Station

Elev 49 ft 26.22 °N, 97.69 °W | Updated 9 minutes ago

Overcast
Overcast
77.8 °F
Feels Like 80 °F
N
1.0
Wind Variable Wind from WNW
Gusts 5.0 mph

Today
High -- | Low -- °F
--% Chance of Precip.
Yesterday
High -- | Low -- °F
Precip. -- in
Pressure 29.99 in
Visibility 9.0 miles
Clouds Scattered Clouds 2300 ft
Overcast 3400 ft
Heat Index 80 °F
Dew Point 73 °F
Humidity 85%
Rainfall 0.00 in
Snow Depth Not available.
7:21 AM 7:20 PM
Waning Crescent, 8% visible
SPECI KHRL 280207Z 32008KT 9SM SCT023 OVC034 26/23 A2999 RMK AO2 T02560228
Pressure 29.99 in
Visibility 9.0 miles
Clouds Scattered Clouds 2300 ft
Overcast 3400 ft
Heat Index 80 °F
Dew Point 73 °F
Humidity 85%
Rainfall 0.00 in
Snow Depth Not available.
7:21 AM 7:20 PM
Waning Crescent, 8% visible
SPECI KHRL 280207Z 32008KT 9SM SCT023 OVC034 26/23 A2999 RMK AO2 T02560228

10-Day Weather Forecast

Almanac

Astronomy

Sep. 27, 2016 Rise Set
Actual Time
Civil Twilight
Nautical Twilight
Astronomical Twilight
Moon
Length of Visible Light
Length of Day
Tomorrow will be .
, % of the Moon is Illuminated

Today's Extremes

State Highs State Lows

Community

WunderPhotos

Upload Photos

1,942,189 photos uploaded!

WunderBlog® & News

Nearby

Air Quality

  Air Quality AQ Index Pollutant
Not available.

Snow Depth

Station Depth Elevation

Earthquake Activity

City Distance Mag. Time & Date
Minimum magnitude displayed is 2.5.

Coastal Water Temperatures

Place Temperature

Stations

Nearby Weather Stations

Station Location Temp. Windchill Dew Point Humidity Wind Precip. Elev Updated Type
                   

Watches & Warnings

There are currently no watches in effect.